createdAt,value
2022-12-29T00:05:27.490Z,101214.22
2022-12-29T00:15:39.642Z,101227.00
2022-12-29T00:26:02.084Z,101215.53
2022-12-29T00:36:07.936Z,101223.94
2022-12-29T00:46:19.388Z,101216.16
2022-12-29T00:56:23.164Z,101199.81
2022-12-29T01:06:27.636Z,101206.44
2022-12-29T01:16:30.805Z,101219.16
2022-12-29T01:26:35.527Z,101216.84
2022-12-29T01:36:38.875Z,101224.41
2022-12-29T01:46:45.281Z,101214.59
2022-12-29T01:56:48.649Z,101201.88
2022-12-29T02:06:56.028Z,101205.34
2022-12-29T02:17:07.620Z,101197.72
2022-12-29T02:27:40.478Z,101184.59
2022-12-29T02:37:48.162Z,101184.53
2022-12-29T02:47:56.733Z,101159.47
2022-12-29T02:58:18.631Z,101163.06
2022-12-29T03:08:25.970Z,101164.22
2022-12-29T03:18:37.048Z,101154.12
2022-12-29T03:28:42.566Z,101152.63
2022-12-29T03:38:50.616Z,101155.34
2022-12-29T03:48:53.735Z,101146.31
2022-12-29T03:58:58.649Z,101146.09
2022-12-29T04:09:02.244Z,101140.41
2022-12-29T04:19:07.234Z,101128.91
2022-12-29T04:29:11.110Z,101139.47
2022-12-29T04:39:15.696Z,101135.50
2022-12-29T04:49:18.773Z,101131.75
2022-12-29T04:59:23.280Z,101138.19
2022-12-29T05:09:26.383Z,101148.28
2022-12-29T05:19:30.900Z,101144.38
2022-12-29T05:29:33.982Z,101146.94
2022-12-29T05:39:38.398Z,101137.97
2022-12-29T05:49:41.477Z,101137.38
2022-12-29T05:59:45.975Z,101132.44
2022-12-29T06:09:49.066Z,101120.09
2022-12-29T06:19:54.089Z,101122.72
2022-12-29T06:29:57.262Z,101122.69
2022-12-29T06:40:01.720Z,101124.03
2022-12-29T06:50:05.417Z,101116.91
2022-12-29T07:00:11.618Z,101132.66
2022-12-29T07:10:14.810Z,101143.88
2022-12-29T07:20:26.259Z,101137.28
2022-12-29T07:30:30.026Z,101149.44
2022-12-29T07:40:34.479Z,101152.69
2022-12-29T07:50:38.051Z,101149.13
2022-12-29T08:00:43.663Z,101170.56
2022-12-29T08:10:46.748Z,101158.19
2022-12-29T08:20:55.602Z,101145.03
2022-12-29T08:31:00.283Z,101156.91
2022-12-29T08:41:05.239Z,101151.28
2022-12-29T08:51:08.744Z,101140.78
2022-12-29T09:01:13.306Z,101139.97
2022-12-29T09:11:27.610Z,101148.47
2022-12-29T09:21:37.599Z,101125.03
2022-12-29T09:31:43.220Z,101101.00
2022-12-29T09:41:52.979Z,101095.50
2022-12-29T09:51:58.766Z,101098.81
2022-12-29T10:02:08.947Z,101069.69
2022-12-29T10:12:24.637Z,101051.94
2022-12-29T10:22:39.211Z,101053.75
2022-12-29T10:32:48.964Z,101051.41
2022-12-29T10:42:55.590Z,101053.13
2022-12-29T10:53:00.359Z,101033.00
2022-12-29T11:03:29.974Z,101030.06
2022-12-29T11:13:38.999Z,101020.44
2022-12-29T11:23:44.243Z,101009.53
2022-12-29T11:33:48.204Z,101008.06
2022-12-29T11:43:54.463Z,100999.06
2022-12-29T11:54:00.352Z,100993.09
2022-12-29T12:04:07.097Z,100996.94
2022-12-29T12:14:17.892Z,100993.94
2022-12-29T12:24:34.510Z,100956.88
2022-12-29T12:34:40.263Z,100940.25
2022-12-29T12:44:53.946Z,100926.31
2022-12-29T12:55:10.136Z,100917.81
2022-12-29T13:05:27.326Z,100919.84
2022-12-29T13:15:42.962Z,100924.97
2022-12-29T13:25:52.290Z,100927.38
2022-12-29T13:35:59.917Z,100927.69
2022-12-29T13:46:09.015Z,100940.00
2022-12-29T13:56:15.325Z,100942.53
2022-12-29T14:06:26.193Z,100966.91
2022-12-29T14:16:34.746Z,100949.66
2022-12-29T14:26:39.297Z,100944.69
2022-12-29T14:36:43.828Z,100965.44
2022-12-29T14:46:57.653Z,100946.16
2022-12-29T14:57:01.771Z,100978.41
2022-12-29T15:07:09.778Z,100983.53
2022-12-29T15:17:26.011Z,100981.63
2022-12-29T15:27:31.270Z,100990.25
2022-12-29T15:37:37.011Z,100998.44
2022-12-29T15:47:42.461Z,100989.22
2022-12-29T15:57:45.852Z,100986.41
2022-12-29T16:07:58.374Z,100991.88
2022-12-29T16:18:01.822Z,100987.62
2022-12-29T16:28:18.184Z,100985.72
2022-12-29T16:38:23.411Z,100979.00
2022-12-29T16:48:29.206Z,100987.75
2022-12-29T16:58:32.884Z,101001.31
2022-12-29T17:08:43.233Z,101011.16
2022-12-29T17:18:46.346Z,101016.00
2022-12-29T17:28:50.778Z,101018.16
2022-12-29T17:38:53.908Z,101021.19
2022-12-29T17:48:58.779Z,101009.91
2022-12-29T17:59:01.957Z,101000.84
2022-12-29T18:09:08.665Z,100997.84
2022-12-29T18:19:12.521Z,100976.56
2022-12-29T18:29:16.903Z,100979.94
2022-12-29T18:39:24.155Z,100985.13
2022-12-29T18:49:31.361Z,100964.31
2022-12-29T18:59:34.513Z,100970.69
2022-12-29T19:09:39.208Z,100955.03
2022-12-29T19:19:42.841Z,100967.97
2022-12-29T19:29:47.461Z,100959.88
2022-12-29T19:39:50.775Z,100959.31
2022-12-29T19:49:55.377Z,100960.88
2022-12-29T19:59:59.318Z,100951.41
2022-12-29T20:10:04.080Z,100945.91
2022-12-29T20:20:08.923Z,100939.56
2022-12-29T20:30:15.039Z,100938.50
2022-12-29T20:40:18.278Z,100937.69
2022-12-29T20:50:22.947Z,100935.31
2022-12-29T21:00:26.163Z,100936.97
2022-12-29T21:10:30.914Z,100938.00
2022-12-29T21:20:33.957Z,100941.75
2022-12-29T21:30:38.641Z,100954.84
2022-12-29T21:40:41.758Z,100940.72
2022-12-29T21:51:06.348Z,100938.44
2022-12-29T22:01:35.818Z,100926.84
2022-12-29T22:11:57.831Z,100937.66
2022-12-29T22:22:00.972Z,100939.50
2022-12-29T22:32:05.893Z,100920.31
2022-12-29T22:42:09.465Z,100924.91
2022-12-29T22:52:14.602Z,100920.63
2022-12-29T23:02:17.847Z,100917.88
2022-12-29T23:12:22.531Z,100915.44
2022-12-29T23:22:25.605Z,100904.28
2022-12-29T23:32:30.149Z,100885.91
2022-12-29T23:42:33.343Z,100876.38
2022-12-29T23:52:37.886Z,100873.50
